Time;durP1;ratioP1;P1;durP2;ratioP2;P2;SDS_P1;SDS_P2;PMS_P1;PMS_P2;Temp;Humidity;BMP_temperature;BMP_pressure;BME280_temperature;BME280_humidity;BME280_pressure;Samples;Min_cycle;Max_cycle;Signal;HPM_P1;HPM_P2
2022/09/28 00:01:48;;;;;;;;;;;8.70;99.90;;;;;;5060499;28;19925;-78
2022/09/28 00:04:13;;;;;;;;;;;8.70;99.90;;;;;;5055913;28;19916;-78
2022/09/28 00:06:39;;;;;;;;;;;8.70;99.90;;;;;;5060381;28;19944;-78
2022/09/28 00:09:05;;;;;;;;;;;8.80;99.90;;;;;;5059464;28;20682;-78
2022/09/28 00:11:30;;;;;;;;;;;8.70;99.90;;;;;;5060897;28;19952;-78
2022/09/28 00:13:58;;;;;;;;;;;8.70;99.90;;;;;;5061786;28;19917;-78
2022/09/28 00:16:26;;;;;;;;;;;8.70;99.90;;;;;;5055247;28;20011;-78
2022/09/28 00:18:52;;;;;;;;;;;8.70;99.90;;;;;;5052909;28;19917;-78
2022/09/28 00:21:21;;;;;;;;;;;8.70;99.90;;;;;;5049345;28;19917;-77
2022/09/28 00:26:32;;;;;;;;;;;8.70;99.90;;;;;;5053452;28;19990;-78
2022/09/28 00:28:59;;;;;;;;;;;8.70;99.90;;;;;;5058170;28;19956;-78
2022/09/28 00:31:27;;;;;;;;;;;8.70;99.90;;;;;;5051566;28;19927;-78
2022/09/28 00:33:56;;;;;;;;;;;8.60;99.90;;;;;;5054318;28;19921;-78
2022/09/28 00:36:22;;;;;;;;;;;8.60;99.90;;;;;;5059454;28;19920;-78
2022/09/28 00:38:48;;;;;;;;;;;8.70;99.90;;;;;;5036997;28;19924;-78
2022/09/28 00:41:13;;;;;;;;;;;8.70;99.90;;;;;;5052797;28;19916;-78
2022/09/28 00:43:39;;;;;;;;;;;8.70;99.90;;;;;;5062158;28;19984;-78
2022/09/28 00:46:23;;;;;;;;;;;8.70;99.90;;;;;;5050176;28;19917;-76
2022/09/28 00:48:54;;;;;;;;;;;8.70;99.90;;;;;;5056449;28;19923;-79
2022/09/28 00:51:20;;;;;;;;;;;8.70;99.90;;;;;;5061193;28;19916;-77
2022/09/28 00:53:46;;;;;;;;;;;8.70;99.90;;;;;;5052664;28;20340;-77
2022/09/28 00:56:17;;;;;;;;;;;8.70;99.90;;;;;;5056215;28;20023;-77
2022/09/28 00:58:47;;;;;;;;;;;8.70;99.90;;;;;;5060089;28;19959;-78
2022/09/28 01:01:12;;;;;;;;;;;8.70;99.90;;;;;;5054211;28;19994;-78
2022/09/28 01:03:44;;;;;;;;;;;8.80;99.90;;;;;;5060205;28;19912;-78
2022/09/28 01:06:12;;;;;;;;;;;8.80;99.90;;;;;;5048573;28;19959;-77
2022/09/28 01:08:38;;;;;;;;;;;8.80;99.90;;;;;;5058968;28;20314;-78
2022/09/28 01:11:04;;;;;;;;;;;8.70;99.90;;;;;;5055603;28;19970;-78
2022/09/28 01:13:31;;;;;;;;;;;8.70;99.90;;;;;;5057797;28;19917;-78
2022/09/28 01:16:06;;;;;;;;;;;8.70;99.90;;;;;;5049149;28;19917;-78
2022/09/28 01:18:32;;;;;;;;;;;8.80;99.90;;;;;;5053261;28;19917;-78
2022/09/28 01:21:13;;;;;;;;;;;8.80;99.90;;;;;;5062763;28;20386;-78
2022/09/28 01:23:47;;;;;;;;;;;8.70;99.90;;;;;;5056339;28;19920;-78
2022/09/28 01:26:28;;;;;;;;;;;8.80;99.90;;;;;;5058817;28;19921;-78
2022/09/28 01:28:58;;;;;;;;;;;8.70;99.90;;;;;;5055894;28;19928;-78
2022/09/28 01:31:26;;;;;;;;;;;8.60;99.90;;;;;;5056114;28;19979;-78
2022/09/28 01:33:57;;;;;;;;;;;8.60;99.90;;;;;;5038382;28;19916;-78
2022/09/28 01:36:29;;;;;;;;;;;8.60;99.90;;;;;;5059049;28;19924;-78
2022/09/28 01:38:56;;;;;;;;;;;8.60;99.90;;;;;;5058948;28;19924;-78
2022/09/28 01:41:22;;;;;;;;;;;8.60;99.90;;;;;;5055049;28;19927;-78
2022/09/28 01:43:53;;;;;;;;;;;8.50;99.90;;;;;;5062268;28;19916;-78
2022/09/28 01:46:20;;;;;;;;;;;8.40;99.90;;;;;;5060722;28;19917;-78
2022/09/28 01:48:45;;;;;;;;;;;8.50;99.90;;;;;;5055250;28;20459;-77
2022/09/28 01:51:34;;;;;;;;;;;8.60;99.90;;;;;;5063132;28;19912;-77
2022/09/28 01:54:04;;;;;;;;;;;8.60;99.90;;;;;;5032159;28;19913;-78
2022/09/28 01:56:33;;;;;;;;;;;8.60;99.90;;;;;;5056435;28;20390;-77
2022/09/28 01:59:01;;;;;;;;;;;8.50;99.90;;;;;;5060289;28;19913;-78
2022/09/28 02:01:30;;;;;;;;;;;8.50;99.90;;;;;;5053871;28;20023;-77
2022/09/28 02:04:00;;;;;;;;;;;8.60;99.90;;;;;;5059619;28;20370;-78
2022/09/28 02:06:30;;;;;;;;;;;8.60;99.90;;;;;;5040595;28;19940;-78
2022/09/28 02:09:02;;;;;;;;;;;8.60;99.90;;;;;;5056103;28;19913;-78
2022/09/28 02:11:29;;;;;;;;;;;8.60;99.90;;;;;;5054075;28;19942;-78
2022/09/28 02:13:58;;;;;;;;;;;8.70;99.90;;;;;;5039178;28;19920;-78
2022/09/28 02:16:28;;;;;;;;;;;8.80;99.90;;;;;;5054272;28;19920;-78
2022/09/28 02:18:56;;;;;;;;;;;8.80;99.90;;;;;;5060682;28;19920;-79
2022/09/28 02:21:21;;;;;;;;;;;8.90;99.90;;;;;;5058197;28;20307;-78
2022/09/28 02:23:53;;;;;;;;;;;8.90;99.90;;;;;;5053170;28;19916;-78
2022/09/28 02:26:21;;;;;;;;;;;8.90;99.90;;;;;;5057229;28;19917;-79
2022/09/28 02:28:47;;;;;;;;;;;9.00;99.90;;;;;;5056097;28;19913;-78
2022/09/28 02:31:12;;;;;;;;;;;9.10;99.90;;;;;;5051966;28;19920;-78
2022/09/28 02:33:39;;;;;;;;;;;9.10;99.90;;;;;;5037552;28;20353;-78
2022/09/28 02:36:05;;;;;;;;;;;9.10;99.90;;;;;;5054397;28;20375;-77
2022/09/28 02:38:31;;;;;;;;;;;9.10;99.90;;;;;;5056123;28;19924;-78
2022/09/28 02:41:01;;;;;;;;;;;9.10;99.90;;;;;;5054644;28;19919;-78
2022/09/28 02:43:33;;;;;;;;;;;9.00;99.90;;;;;;5059761;28;20473;-78
2022/09/28 02:46:15;;;;;;;;;;;9.00;99.90;;;;;;5055017;28;19913;-78
2022/09/28 02:48:50;;;;;;;;;;;9.00;99.90;;;;;;5052936;28;19967;-78
2022/09/28 02:51:21;;;;;;;;;;;9.00;99.90;;;;;;5057732;28;20066;-78
2022/09/28 02:53:54;;;;;;;;;;;9.10;99.90;;;;;;5052078;28;19973;-79
2022/09/28 02:56:19;;;;;;;;;;;9.10;99.90;;;;;;5049754;28;19916;-79
2022/09/28 02:59:04;;;;;;;;;;;9.10;99.90;;;;;;5054551;28;19924;-78
2022/09/28 03:01:38;;;;;;;;;;;9.10;99.90;;;;;;5051321;28;19935;-78
2022/09/28 03:04:04;;;;;;;;;;;9.00;99.90;;;;;;5059427;28;19921;-78
2022/09/28 03:06:35;;;;;;;;;;;8.90;99.90;;;;;;5057798;28;19916;-78
2022/09/28 03:09:07;;;;;;;;;;;8.90;99.90;;;;;;5052014;28;19917;-78
2022/09/28 03:11:37;;;;;;;;;;;8.80;99.90;;;;;;5057313;28;20014;-78
2022/09/28 03:14:04;;;;;;;;;;;8.70;99.90;;;;;;5058080;28;19920;-79
2022/09/28 03:16:31;;;;;;;;;;;8.60;99.90;;;;;;5054892;28;19917;-78
2022/09/28 03:18:56;;;;;;;;;;;8.50;99.90;;;;;;5054706;28;19928;-78
2022/09/28 03:21:22;;;;;;;;;;;8.50;99.90;;;;;;5059832;28;19925;-78
2022/09/28 03:23:47;;;;;;;;;;;8.40;99.90;;;;;;5057676;28;19924;-78
2022/09/28 03:26:15;;;;;;;;;;;8.30;99.90;;;;;;5054909;28;19916;-78
2022/09/28 03:28:41;;;;;;;;;;;8.70;99.90;;;;;;5060279;28;19996;-78
2022/09/28 03:31:07;;;;;;;;;;;9.00;99.90;;;;;;5053127;28;20003;-79
2022/09/28 03:33:32;;;;;;;;;;;9.30;99.90;;;;;;5055453;28;20463;-78
2022/09/28 03:35:59;;;;;;;;;;;9.30;99.90;;;;;;5056662;28;19924;-78
2022/09/28 03:38:25;;;;;;;;;;;9.40;99.90;;;;;;5056052;28;20640;-77
2022/09/28 03:40:51;;;;;;;;;;;9.70;99.90;;;;;;5056115;28;19916;-78
2022/09/28 03:43:17;;;;;;;;;;;9.50;99.90;;;;;;5063025;28;20131;-78
2022/09/28 03:45:42;;;;;;;;;;;10.00;99.90;;;;;;5054496;28;20679;-79
2022/09/28 03:48:08;;;;;;;;;;;9.90;99.90;;;;;;5049398;28;19944;-78
2022/09/28 03:50:33;;;;;;;;;;;10.20;99.90;;;;;;5058562;28;20389;-79
2022/09/28 03:53:02;;;;;;;;;;;10.40;99.90;;;;;;5054254;28;20016;-78
2022/09/28 03:55:31;;;;;;;;;;;10.40;99.90;;;;;;5049717;28;19917;-78
2022/09/28 03:57:56;;;;;;;;;;;10.50;99.90;;;;;;5064011;28;20739;-78
2022/09/28 04:00:22;;;;;;;;;;;10.30;99.90;;;;;;5058053;28;20023;-78
2022/09/28 04:02:48;;;;;;;;;;;10.20;99.90;;;;;;5050505;28;20404;-78
2022/09/28 04:05:13;;;;;;;;;;;10.20;99.90;;;;;;5057923;28;19936;-79
2022/09/28 04:07:39;;;;;;;;;;;10.10;99.90;;;;;;5055880;28;19925;-78
2022/09/28 04:10:05;;;;;;;;;;;10.10;99.90;;;;;;5051865;28;20375;-79
2022/09/28 04:12:30;;;;;;;;;;;10.10;99.90;;;;;;5056534;28;19928;-77
2022/09/28 04:14:56;;;;;;;;;;;10.00;99.90;;;;;;5057639;28;19967;-79
2022/09/28 04:17:21;;;;;;;;;;;9.90;99.90;;;;;;5051518;28;19924;-78
2022/09/28 04:19:47;;;;;;;;;;;9.90;99.90;;;;;;5058285;28;19962;-78
2022/09/28 04:22:13;;;;;;;;;;;9.80;99.90;;;;;;5055859;28;20447;-80
2022/09/28 04:24:39;;;;;;;;;;;9.80;99.90;;;;;;5053409;28;20371;-79
2022/09/28 04:29:48;;;;;;;;;;;9.80;99.90;;;;;;5052998;28;19928;-80
2022/09/28 04:32:14;;;;;;;;;;;10.10;99.90;;;;;;5037317;28;19920;-79
2022/09/28 04:34:39;;;;;;;;;;;9.80;99.90;;;;;;5055118;28;19934;-80
2022/09/28 04:37:05;;;;;;;;;;;9.50;99.90;;;;;;5053624;28;19966;-79
2022/09/28 04:39:30;;;;;;;;;;;9.40;99.90;;;;;;5082652;28;19920;-79
2022/09/28 04:41:57;;;;;;;;;;;9.30;99.90;;;;;;5059388;28;19972;-82
2022/09/28 04:44:22;;;;;;;;;;;9.20;99.90;;;;;;5066773;28;19916;-78
2022/09/28 04:46:48;;;;;;;;;;;9.30;99.90;;;;;;5057578;28;20430;-79
2022/09/28 04:49:13;;;;;;;;;;;9.30;99.90;;;;;;5058204;28;19921;-80
2022/09/28 04:51:39;;;;;;;;;;;9.20;99.90;;;;;;5055832;28;19962;-81
2022/09/28 04:54:04;;;;;;;;;;;9.20;99.90;;;;;;5055186;28;19916;-80
2022/09/28 04:56:31;;;;;;;;;;;9.20;99.90;;;;;;5052864;28;19928;-81
2022/09/28 04:58:57;;;;;;;;;;;9.30;99.90;;;;;;5039545;28;19936;-81
2022/09/28 05:01:23;;;;;;;;;;;9.40;99.90;;;;;;5054968;28;20228;-81
2022/09/28 05:03:49;;;;;;;;;;;9.30;99.90;;;;;;5055630;28;19921;-81
2022/09/28 05:06:15;;;;;;;;;;;9.40;99.90;;;;;;5054852;28;19929;-80
2022/09/28 05:08:41;;;;;;;;;;;9.30;99.90;;;;;;5054711;28;20072;-83
2022/09/28 05:11:08;;;;;;;;;;;9.40;99.90;;;;;;5059246;28;19917;-82
2022/09/28 05:13:40;;;;;;;;;;;9.30;99.90;;;;;;5092556;28;20697;-78
2022/09/28 05:16:06;;;;;;;;;;;9.40;99.90;;;;;;5086899;28;20337;-79
2022/09/28 05:18:34;;;;;;;;;;;9.40;99.90;;;;;;5052392;28;19990;-79
2022/09/28 05:21:00;;;;;;;;;;;9.40;99.90;;;;;;5062031;28;19947;-78
2022/09/28 05:23:26;;;;;;;;;;;9.30;99.90;;;;;;5049521;28;19931;-79
2022/09/28 05:25:51;;;;;;;;;;;9.30;99.90;;;;;;5057928;28;20301;-78
2022/09/28 05:28:24;;;;;;;;;;;9.30;99.90;;;;;;5056925;28;19929;-78
2022/09/28 05:30:51;;;;;;;;;;;9.40;99.90;;;;;;5049060;28;19917;-78
2022/09/28 05:33:16;;;;;;;;;;;9.40;99.90;;;;;;5053730;28;20294;-79
2022/09/28 05:35:42;;;;;;;;;;;9.30;99.90;;;;;;5058098;28;19923;-77
2022/09/28 05:38:07;;;;;;;;;;;9.40;99.90;;;;;;5059311;28;19964;-78
2022/09/28 05:40:33;;;;;;;;;;;9.40;99.90;;;;;;5043694;28;19925;-78
2022/09/28 05:43:00;;;;;;;;;;;9.50;99.90;;;;;;5063997;28;19933;-77
2022/09/28 05:45:25;;;;;;;;;;;9.50;99.90;;;;;;5055608;28;20004;-78
2022/09/28 05:47:51;;;;;;;;;;;9.50;99.90;;;;;;5049755;28;20014;-77
2022/09/28 05:50:17;;;;;;;;;;;9.50;99.90;;;;;;5051929;28;19955;-77
2022/09/28 05:52:43;;;;;;;;;;;9.60;99.90;;;;;;5058837;28;19951;-77
2022/09/28 05:55:09;;;;;;;;;;;9.60;99.90;;;;;;5085308;28;19916;-77
2022/09/28 05:57:35;;;;;;;;;;;9.60;99.90;;;;;;5066479;28;19920;-77
2022/09/28 06:00:01;;;;;;;;;;;9.60;99.90;;;;;;5053255;28;20012;-77
2022/09/28 06:02:26;;;;;;;;;;;9.70;99.90;;;;;;5049553;28;19927;-78
2022/09/28 06:04:52;;;;;;;;;;;9.70;99.90;;;;;;5088490;28;19917;-78
2022/09/28 06:07:18;;;;;;;;;;;9.80;99.90;;;;;;5043714;28;19928;-78
2022/09/28 06:09:43;;;;;;;;;;;9.80;99.90;;;;;;5035837;28;19925;-77
2022/09/28 06:12:09;;;;;;;;;;;9.80;99.90;;;;;;5061603;28;19927;-76
2022/09/28 06:14:34;;;;;;;;;;;9.70;99.90;;;;;;5056253;28;20041;-77
2022/09/28 06:17:00;;;;;;;;;;;9.20;99.90;;;;;;5051150;28;19999;-78
2022/09/28 06:19:27;;;;;;;;;;;9.10;99.90;;;;;;5045923;28;20071;-78
2022/09/28 06:21:52;;;;;;;;;;;9.30;99.90;;;;;;5059184;28;19925;-77
2022/09/28 06:24:18;;;;;;;;;;;9.20;99.90;;;;;;5053414;28;19928;-79
2022/09/28 06:26:43;;;;;;;;;;;9.10;99.90;;;;;;5048993;28;19929;-77
2022/09/28 06:29:09;;;;;;;;;;;9.10;99.90;;;;;;5057539;28;20083;-78
2022/09/28 06:31:34;;;;;;;;;;;8.90;99.90;;;;;;5058545;28;19921;-78
2022/09/28 06:34:00;;;;;;;;;;;9.00;99.90;;;;;;5055799;28;19943;-77
2022/09/28 06:36:30;;;;;;;;;;;9.10;99.90;;;;;;5071419;28;20390;-77
2022/09/28 06:38:56;;;;;;;;;;;9.10;99.90;;;;;;5086587;28;19913;-77
2022/09/28 06:41:21;;;;;;;;;;;9.00;99.90;;;;;;5058295;28;19917;-78
2022/09/28 06:43:47;;;;;;;;;;;9.10;99.90;;;;;;5049665;28;20359;-78
2022/09/28 06:46:13;;;;;;;;;;;9.20;99.90;;;;;;5057913;28;20004;-78
2022/09/28 06:48:38;;;;;;;;;;;9.40;99.90;;;;;;5057194;28;20394;-78
2022/09/28 06:51:04;;;;;;;;;;;9.40;99.90;;;;;;5049178;28;19917;-78
2022/09/28 06:53:31;;;;;;;;;;;9.30;99.90;;;;;;5067020;28;19948;-76
2022/09/28 06:55:56;;;;;;;;;;;9.30;99.90;;;;;;5055045;28;19939;-77
2022/09/28 06:58:22;;;;;;;;;;;9.40;99.90;;;;;;5089731;28;20402;-79
2022/09/28 07:00:50;;;;;;;;;;;9.40;99.90;;;;;;5074959;28;20427;-78
2022/09/28 07:03:17;;;;;;;;;;;9.40;99.90;;;;;;5058288;28;20031;-78
2022/09/28 07:05:44;;;;;;;;;;;9.40;99.90;;;;;;5061384;28;19925;-78
2022/09/28 07:08:10;;;;;;;;;;;9.40;99.90;;;;;;5048848;28;19917;-79
2022/09/28 07:10:40;;;;;;;;;;;9.50;99.90;;;;;;5051714;28;20385;-78
2022/09/28 07:13:05;;;;;;;;;;;9.30;99.90;;;;;;5061617;28;19917;-78
2022/09/28 07:15:31;;;;;;;;;;;9.30;99.90;;;;;;5052891;28;19982;-77
2022/09/28 07:18:00;;;;;;;;;;;9.30;99.90;;;;;;5056471;28;19922;-78
2022/09/28 07:20:26;;;;;;;;;;;9.10;99.90;;;;;;5063312;28;19951;-78
2022/09/28 07:22:58;;;;;;;;;;;9.10;99.90;;;;;;5055042;28;20374;-78
2022/09/28 07:25:24;;;;;;;;;;;9.10;99.90;;;;;;5058394;28;20387;-79
2022/09/28 07:27:50;;;;;;;;;;;9.20;99.90;;;;;;5062876;28;20434;-78
2022/09/28 07:30:15;;;;;;;;;;;9.40;99.90;;;;;;5070884;28;19955;-78
2022/09/28 07:32:41;;;;;;;;;;;9.30;99.90;;;;;;5031318;28;19921;-78
2022/09/28 07:35:08;;;;;;;;;;;9.30;99.90;;;;;;5048239;28;19920;-80
2022/09/28 07:37:34;;;;;;;;;;;9.00;99.90;;;;;;5051009;28;19928;-81
2022/09/28 07:42:45;;;;;;;;;;;7.90;99.90;;;;;;5047395;28;20620;-81
2022/09/28 07:45:11;;;;;;;;;;;8.00;99.90;;;;;;5048884;28;20027;-79
2022/09/28 07:47:36;;;;;;;;;;;8.20;99.90;;;;;;5048288;28;19944;-79
2022/09/28 07:50:02;;;;;;;;;;;8.50;99.90;;;;;;5048920;28;19916;-78
2022/09/28 07:52:28;;;;;;;;;;;8.70;99.90;;;;;;5049231;28;19974;-79
2022/09/28 07:54:54;;;;;;;;;;;9.00;99.90;;;;;;5047537;28;19924;-78
2022/09/28 07:57:20;;;;;;;;;;;8.90;99.90;;;;;;5045823;28;19925;-79
2022/09/28 07:59:46;;;;;;;;;;;8.80;99.90;;;;;;5052605;28;19982;-78
2022/09/28 08:02:12;;;;;;;;;;;8.80;99.90;;;;;;5084078;28;19928;-81
2022/09/28 08:04:37;;;;;;;;;;;8.80;99.90;;;;;;5083606;28;20566;-79
2022/09/28 08:07:08;;;;;;;;;;;8.80;99.90;;;;;;5061390;28;19925;-79
2022/09/28 08:09:34;;;;;;;;;;;8.90;99.90;;;;;;5057515;28;19925;-78
2022/09/28 08:11:59;;;;;;;;;;;8.90;99.90;;;;;;5083033;28;19923;-79
2022/09/28 08:14:25;;;;;;;;;;;9.10;99.90;;;;;;5080656;28;19912;-79
2022/09/28 08:16:51;;;;;;;;;;;9.10;99.90;;;;;;5073066;28;19924;-78
2022/09/28 08:19:17;;;;;;;;;;;9.10;99.90;;;;;;5081852;28;19916;-78
2022/09/28 08:21:46;;;;;;;;;;;9.10;99.90;;;;;;5082702;28;20450;-78
2022/09/28 08:24:12;;;;;;;;;;;9.20;99.90;;;;;;5055687;28;19921;-78
2022/09/28 08:26:37;;;;;;;;;;;9.30;99.90;;;;;;5079198;28;19917;-79
2022/09/28 08:29:03;;;;;;;;;;;9.40;99.90;;;;;;5080271;28;19943;-79
2022/09/28 08:31:29;;;;;;;;;;;9.40;99.90;;;;;;5062495;28;20070;-79
2022/09/28 08:33:56;;;;;;;;;;;9.60;99.90;;;;;;5064084;28;20599;-79
2022/09/28 08:36:21;;;;;;;;;;;9.80;99.90;;;;;;5063111;28;20363;-78
2022/09/28 08:38:47;;;;;;;;;;;9.70;99.90;;;;;;5036880;28;19927;-78
2022/09/28 08:41:18;;;;;;;;;;;9.70;99.90;;;;;;5057898;28;20011;-78
2022/09/28 08:43:46;;;;;;;;;;;9.70;99.90;;;;;;5094697;28;19943;-78
2022/09/28 08:46:13;;;;;;;;;;;9.80;99.90;;;;;;5054529;28;19995;-78
2022/09/28 08:48:52;;;;;;;;;;;9.90;99.90;;;;;;5057444;28;19921;-78
2022/09/28 08:51:18;;;;;;;;;;;9.90;99.90;;;;;;5089050;28;19912;-77
2022/09/28 08:53:50;;;;;;;;;;;10.00;99.90;;;;;;5056053;28;19916;-78
2022/09/28 08:56:33;;;;;;;;;;;10.00;99.90;;;;;;5056748;28;19924;-77
2022/09/28 08:59:02;;;;;;;;;;;10.10;99.90;;;;;;5087828;28;19964;-78
2022/09/28 09:01:32;;;;;;;;;;;10.40;99.90;;;;;;5059268;28;19921;-77
2022/09/28 09:03:57;;;;;;;;;;;10.30;99.90;;;;;;5050666;28;20200;-77
2022/09/28 09:06:29;;;;;;;;;;;10.30;99.90;;;;;;5059791;28;19924;-78
2022/09/28 09:09:05;;;;;;;;;;;10.40;99.90;;;;;;5054677;28;19912;-77
2022/09/28 09:11:34;;;;;;;;;;;10.40;99.90;;;;;;5061946;28;19917;-77
2022/09/28 09:14:11;;;;;;;;;;;10.40;99.90;;;;;;5057418;28;20402;-78
2022/09/28 09:16:37;;;;;;;;;;;10.50;99.90;;;;;;5052282;28;19982;-77
2022/09/28 09:19:05;;;;;;;;;;;10.30;99.90;;;;;;5054552;28;20279;-78
2022/09/28 09:21:56;;;;;;;;;;;10.30;99.90;;;;;;5055793;28;19913;-77
2022/09/28 09:24:45;;;;;;;;;;;10.30;99.90;;;;;;5053966;28;19920;-78
2022/09/28 09:27:10;;;;;;;;;;;10.50;99.90;;;;;;5051038;28;19920;-77
2022/09/28 09:29:50;;;;;;;;;;;10.70;99.90;;;;;;5056556;28;20317;-77
2022/09/28 09:32:21;;;;;;;;;;;10.80;99.90;;;;;;5053257;28;19951;-77
2022/09/28 09:35:00;;;;;;;;;;;10.70;99.90;;;;;;5057287;28;19913;-77
2022/09/28 09:37:28;;;;;;;;;;;10.70;99.90;;;;;;5054728;28;20492;-77
2022/09/28 09:40:00;;;;;;;;;;;10.60;99.90;;;;;;5049127;28;19967;-77
2022/09/28 09:42:46;;;;;;;;;;;10.70;99.90;;;;;;5059475;28;19982;-77
2022/09/28 09:45:24;;;;;;;;;;;10.70;99.90;;;;;;5035644;28;20343;-77
2022/09/28 09:47:54;;;;;;;;;;;10.70;99.90;;;;;;5053428;28;19916;-78
2022/09/28 09:50:28;;;;;;;;;;;10.60;99.90;;;;;;5054900;28;20382;-77
2022/09/28 09:53:14;;;;;;;;;;;10.70;99.90;;;;;;5054266;28;19931;-77
2022/09/28 09:55:49;;;;;;;;;;;10.60;99.90;;;;;;5060782;28;20003;-77
2022/09/28 09:58:22;;;;;;;;;;;10.60;99.90;;;;;;5060744;28;20011;-77
2022/09/28 10:00:49;;;;;;;;;;;10.70;99.90;;;;;;5055200;28;19926;-79
2022/09/28 10:03:23;;;;;;;;;;;10.90;99.90;;;;;;5060455;28;20518;-79
2022/09/28 10:06:11;;;;;;;;;;;10.90;99.90;;;;;;5059418;28;19923;-79
2022/09/28 10:08:39;;;;;;;;;;;10.70;99.90;;;;;;5059500;28;20015;-79
2022/09/28 10:11:12;;;;;;;;;;;10.60;99.90;;;;;;5048012;28;20349;-78
2022/09/28 10:13:39;;;;;;;;;;;10.50;99.90;;;;;;5048330;28;19905;-78
2022/09/28 10:16:20;;;;;;;;;;;10.50;99.90;;;;;;5066965;28;20369;-78
2022/09/28 10:18:48;;;;;;;;;;;10.60;99.90;;;;;;5063439;28;19923;-78
2022/09/28 10:21:15;;;;;;;;;;;10.70;99.90;;;;;;5060076;28;19920;-77
2022/09/28 10:23:41;;;;;;;;;;;10.70;99.90;;;;;;5057071;28;19920;-78
2022/09/28 10:26:12;;;;;;;;;;;10.60;99.90;;;;;;5062199;28;21159;-77
2022/09/28 10:28:50;;;;;;;;;;;10.60;99.90;;;;;;5054482;28;19938;-77
2022/09/28 10:31:34;;;;;;;;;;;10.60;99.90;;;;;;5064312;28;19916;-76
2022/09/28 10:34:01;;;;;;;;;;;10.40;99.90;;;;;;5072420;28;19979;-81
2022/09/28 10:36:26;;;;;;;;;;;10.40;99.90;;;;;;5076050;28;20289;-78
2022/09/28 10:38:53;;;;;;;;;;;10.30;99.90;;;;;;5096330;28;19912;-77
2022/09/28 10:41:20;;;;;;;;;;;10.00;99.90;;;;;;5075139;28;19912;-79
2022/09/28 10:44:04;;;;;;;;;;;9.70;99.90;;;;;;5078248;28;19924;-78
2022/09/28 10:46:31;;;;;;;;;;;9.60;99.90;;;;;;5068224;28;19966;-79
2022/09/28 10:49:01;;;;;;;;;;;9.50;99.90;;;;;;5076078;28;19917;-79
2022/09/28 10:51:43;;;;;;;;;;;9.30;99.90;;;;;;5081536;28;19916;-79
2022/09/28 10:54:20;;;;;;;;;;;9.40;99.90;;;;;;5077502;28;19969;-80
2022/09/28 10:56:46;;;;;;;;;;;9.40;99.90;;;;;;5075659;28;20379;-79
2022/09/28 10:59:27;;;;;;;;;;;9.30;99.90;;;;;;5080941;28;19951;-80
2022/09/28 11:01:55;;;;;;;;;;;9.20;99.90;;;;;;5077886;28;19990;-82
2022/09/28 11:04:22;;;;;;;;;;;9.10;99.90;;;;;;5068796;28;19913;-82
2022/09/28 11:06:48;;;;;;;;;;;9.10;99.90;;;;;;5092660;28;20298;-81
2022/09/28 11:09:25;;;;;;;;;;;9.10;99.90;;;;;;5076799;28;19988;-82
2022/09/28 11:11:51;;;;;;;;;;;9.20;99.90;;;;;;5080045;28;20025;-83
2022/09/28 11:14:37;;;;;;;;;;;9.20;99.90;;;;;;5075722;28;20001;-82
2022/09/28 11:17:21;;;;;;;;;;;9.20;99.90;;;;;;5072636;28;19916;-79
2022/09/28 11:19:47;;;;;;;;;;;9.20;99.90;;;;;;5078814;28;19966;-79
2022/09/28 11:22:23;;;;;;;;;;;9.20;99.90;;;;;;5076052;28;19920;-79
2022/09/28 11:24:49;;;;;;;;;;;9.00;99.90;;;;;;5080923;28;19973;-79
2022/09/28 11:27:19;;;;;;;;;;;9.20;99.90;;;;;;5074485;28;20390;-82
2022/09/28 11:29:51;;;;;;;;;;;9.00;99.90;;;;;;5093349;28;19999;-78
2022/09/28 11:32:17;;;;;;;;;;;9.10;99.90;;;;;;5074300;28;19917;-80
2022/09/28 11:34:44;;;;;;;;;;;9.10;99.90;;;;;;5052981;28;19921;-78
2022/09/28 11:37:09;;;;;;;;;;;9.00;99.90;;;;;;5078303;28;20354;-79
2022/09/28 11:39:38;;;;;;;;;;;9.00;99.90;;;;;;5078491;28;19920;-78
2022/09/28 11:42:09;;;;;;;;;;;9.00;99.90;;;;;;5075307;28;19964;-82
2022/09/28 11:44:37;;;;;;;;;;;8.90;99.90;;;;;;5077556;28;20218;-80
2022/09/28 11:47:21;;;;;;;;;;;9.00;99.90;;;;;;5076476;28;20328;-80
2022/09/28 11:49:56;;;;;;;;;;;9.00;99.90;;;;;;5082945;28;20019;-82
2022/09/28 11:52:27;;;;;;;;;;;9.00;99.90;;;;;;5079148;28;20269;-82
2022/09/28 11:54:58;;;;;;;;;;;9.20;99.90;;;;;;5077073;28;20259;-83
2022/09/28 11:57:27;;;;;;;;;;;9.00;99.90;;;;;;5067243;28;20296;-82
2022/09/28 11:59:55;;;;;;;;;;;8.90;99.90;;;;;;5098109;28;19917;-81
2022/09/28 12:02:38;;;;;;;;;;;8.80;99.90;;;;;;5060535;28;19948;-82
2022/09/28 12:05:22;;;;;;;;;;;8.80;99.90;;;;;;5051277;28;19921;-80
2022/09/28 12:07:55;;;;;;;;;;;9.00;99.90;;;;;;5058002;28;19935;-80
2022/09/28 12:10:30;;;;;;;;;;;9.10;99.90;;;;;;5057494;28;19973;-79
2022/09/28 12:13:14;;;;;;;;;;;9.20;99.90;;;;;;5050583;28;19913;-79
2022/09/28 12:15:48;;;;;;;;;;;9.10;99.90;;;;;;5061836;28;19923;-82
2022/09/28 12:18:40;;;;;;;;;;;9.20;99.90;;;;;;5068213;28;19996;-82
2022/09/28 12:21:26;;;;;;;;;;;9.20;99.90;;;;;;5058240;28;19912;-81
2022/09/28 12:24:17;;;;;;;;;;;9.10;99.90;;;;;;5057678;28;19916;-79
2022/09/28 12:26:49;;;;;;;;;;;9.20;99.90;;;;;;5050163;28;19916;-79
2022/09/28 12:29:35;;;;;;;;;;;9.30;99.90;;;;;;5050985;28;20179;-78
2022/09/28 12:32:15;;;;;;;;;;;9.40;99.90;;;;;;5053086;28;19916;-78
2022/09/28 12:34:41;;;;;;;;;;;9.40;99.90;;;;;;5062651;28;19962;-78
2022/09/28 12:37:29;;;;;;;;;;;9.60;99.90;;;;;;5057785;28;19913;-78
2022/09/28 12:40:07;;;;;;;;;;;9.70;99.90;;;;;;5054292;28;19920;-78
2022/09/28 12:42:42;;;;;;;;;;;9.60;99.90;;;;;;5054279;28;19921;-77
2022/09/28 12:45:16;;;;;;;;;;;9.50;99.90;;;;;;5054180;28;20004;-77
2022/09/28 12:47:53;;;;;;;;;;;9.50;99.90;;;;;;5059285;28;19912;-77
2022/09/28 12:50:22;;;;;;;;;;;9.50;99.90;;;;;;5067762;28;19951;-77
2022/09/28 12:53:06;;;;;;;;;;;9.20;99.90;;;;;;5068896;28;19913;-84
2022/09/28 12:55:35;;;;;;;;;;;9.20;99.90;;;;;;5062112;28;19954;-78
2022/09/28 12:58:19;;;;;;;;;;;9.30;99.90;;;;;;5058716;28;20342;-78
2022/09/28 13:00:56;;;;;;;;;;;9.10;99.90;;;;;;5050896;28;20007;-77
2022/09/28 13:03:34;;;;;;;;;;;9.20;99.90;;;;;;5070482;28;19916;-78
2022/09/28 13:06:28;;;;;;;;;;;9.10;99.90;;;;;;5064823;28;20383;-77
2022/09/28 13:09:06;;;;;;;;;;;9.20;99.90;;;;;;5048965;28;20624;-78
2022/09/28 13:11:48;;;;;;;;;;;9.10;99.90;;;;;;5064520;28;19917;-83
2022/09/28 13:14:32;;;;;;;;;;;9.20;99.90;;;;;;5060705;28;19936;-82
2022/09/28 13:17:16;;;;;;;;;;;9.30;99.90;;;;;;5063669;28;19919;-79
2022/09/28 13:19:57;;;;;;;;;;;9.30;99.90;;;;;;5058674;28;20020;-75
2022/09/28 13:22:38;;;;;;;;;;;9.40;99.90;;;;;;5054902;28;19956;-78
2022/09/28 13:25:10;;;;;;;;;;;9.30;99.90;;;;;;5062925;28;19916;-80
2022/09/28 13:27:39;;;;;;;;;;;9.30;99.90;;;;;;5063442;28;19917;-78
2022/09/28 13:30:06;;;;;;;;;;;9.00;99.90;;;;;;5056065;28;19990;-78
2022/09/28 13:32:33;;;;;;;;;;;9.00;99.90;;;;;;5061478;28;19917;-80
2022/09/28 13:35:01;;;;;;;;;;;8.90;99.90;;;;;;5055319;28;19916;-79
2022/09/28 13:37:27;;;;;;;;;;;8.80;99.90;;;;;;5056466;28;19927;-79
2022/09/28 13:40:12;;;;;;;;;;;8.80;99.90;;;;;;5060828;28;19912;-79
2022/09/28 13:42:44;;;;;;;;;;;9.00;99.90;;;;;;5056931;28;19920;-82
2022/09/28 13:45:21;;;;;;;;;;;8.90;99.90;;;;;;5056838;28;19916;-80
2022/09/28 13:47:46;;;;;;;;;;;9.00;99.90;;;;;;5058006;28;19920;-81
2022/09/28 13:50:15;;;;;;;;;;;8.80;99.90;;;;;;5055113;28;19913;-80
2022/09/28 13:52:46;;;;;;;;;;;9.00;99.90;;;;;;5050537;28;20003;-81
2022/09/28 13:55:31;;;;;;;;;;;9.00;99.90;;;;;;5059493;28;19940;-81
2022/09/28 13:58:16;;;;;;;;;;;9.10;99.90;;;;;;5053660;28;19983;-81
2022/09/28 14:00:48;;;;;;;;;;;9.10;99.90;;;;;;5058605;28;19920;-82
2022/09/28 14:03:24;;;;;;;;;;;9.00;99.90;;;;;;5082165;28;19947;-83
2022/09/28 14:05:59;;;;;;;;;;;9.10;99.90;;;;;;5054218;28;19981;-82
2022/09/28 14:08:27;;;;;;;;;;;8.90;99.90;;;;;;5063372;28;19920;-81
2022/09/28 14:10:53;;;;;;;;;;;9.00;99.90;;;;;;5051006;28;20428;-80
2022/09/28 14:13:38;;;;;;;;;;;8.90;99.90;;;;;;5057667;28;19979;-81
2022/09/28 14:16:23;;;;;;;;;;;9.00;99.90;;;;;;5056756;28;20379;-83
2022/09/28 14:18:50;;;;;;;;;;;9.00;99.90;;;;;;5062830;28;19912;-81
2022/09/28 14:21:34;;;;;;;;;;;9.00;99.90;;;;;;5061105;28;19917;-80
2022/09/28 14:24:12;;;;;;;;;;;8.90;99.90;;;;;;5050450;28;19917;-80
2022/09/28 14:27:07;;;;;;;;;;;8.90;99.90;;;;;;5054932;28;19913;-80
2022/09/28 14:29:35;;;;;;;;;;;8.90;99.90;;;;;;5038823;28;19948;-80
2022/09/28 14:32:09;;;;;;;;;;;8.80;99.90;;;;;;5038821;28;19917;-80
2022/09/28 14:34:37;;;;;;;;;;;8.80;99.90;;;;;;5049004;28;19917;-80
2022/09/28 14:43:30;;;;;;;;;;;8.80;99.90;;;;;;5038722;28;19928;-80
2022/09/28 14:46:10;;;;;;;;;;;8.70;99.90;;;;;;5026650;28;19975;-80
2022/09/28 14:48:46;;;;;;;;;;;8.70;99.90;;;;;;5023739;28;19921;-80
2022/09/28 14:51:28;;;;;;;;;;;8.70;99.90;;;;;;5031769;28;20067;-79
2022/09/28 14:54:03;;;;;;;;;;;8.60;99.90;;;;;;5046532;28;19928;-79
2022/09/28 14:56:42;;;;;;;;;;;8.60;99.90;;;;;;5048037;28;19921;-81
2022/09/28 14:59:13;;;;;;;;;;;8.50;99.90;;;;;;5043708;28;19966;-80
2022/09/28 15:01:38;;;;;;;;;;;8.30;99.90;;;;;;5051682;28;20236;-78